Latest Coastal Weather Observations for Moruya Airport

IDN60701

Issued at 6:31 am EST Monday 1 June 2020 (issued every 10 minutes, with the page automatically refreshed every 10 minutes)

About coastal observations | Map of coastal stations | Coastal observations for NSW | Marine services | Other Formats
Station Details ID: 069148 Name: MORUYA AIRPORT AWS Lat: -35.90 Lon: 150.14 Height: 4.0 m
Data from the previous 72 hours. | See also: Recent months at Moruya Airport
Date/Time
EST
Wind Sea
Height
m
Swell Vis
km
Cloud Weather Temp
°C
Press
hPa
Rain since
9am
mm
Dir  Spd
kts
Gust
kts
Height
m
Period
s
Dir
01/06:30am NNW 7 9 - - - - 10 Clear - 9.8 1007.0 0.0
01/06:00am N 5 6 - - - - 10 - - 8.5 1007.2 0.0
01/05:30am NNW 5 6 - - - - 10 - - 9.0 1007.3 0.0
01/05:00am NNE 5 5 - - - - 10 - - 10.2 1007.3 0.0
01/04:30am N 2 6 - - - - 10 - - 10.7 1007.6 0.0
01/04:00am N 7 9 - - - - 10 - - 13.1 1007.7 0.0
01/03:30am N 5 7 - - - - 10 Partly cloudy - 12.2 1008.0 0.0
01/03:00am N 5 6 - - - - 10 Cloudy - 12.7 1008.7 0.0
01/02:30am N 5 7 - - - - 10 Partly cloudy - 13.0 1009.1 0.0
01/02:00am N 6 7 - - - - 10 Partly cloudy - 13.6 1009.7 0.0
01/01:30am N 5 7 - - - - 10 Partly cloudy - 13.7 1009.9 0.0
01/01:00am N 7 9 - - - - 10 Partly cloudy - 14.0 1010.1 0.0
01/12:30am NNW 6 8 - - - - 10 Partly cloudy - 14.5 1010.8 0.0
01/12:00am N 8 11 - - - - 10 Cloudy - 15.4 1011.1 0.0
 
Date/Time
EST
Wind Sea
Height
m
Swell Vis
km
Cloud Weather Temp
°C
Press
hPa
Rain since
9am
mm
Dir  Spd
kts
Gust
kts
Height
m
Period
s
Dir
31/11:30pm N 7 9 - - - - 10 Partly cloudy - 14.4 1011.4 0.0
31/11:00pm N 7 8 - - - - 10 Partly cloudy - 14.2 1011.6 0.0
31/10:30pm N 6 8 - - - - 10 - - 14.7 1012.0 0.0
31/10:00pm N 6 8 - - - - 10 - - 15.1 1012.2 0.0
31/09:30pm N 7 9 - - - - 10 - - 15.6 1012.3 0.0
31/09:00pm N 6 9 - - - - 10 Mostly cloudy - 14.2 1012.5 0.0
31/08:30pm N 5 6 - - - - 10 - - 13.9 1012.8 0.0
31/08:00pm N 6 8 - - - - 10 - - 15.2 1013.0 0.0
31/07:30pm N 5 7 - - - - 10 - - 13.7 1013.1 0.0
31/07:00pm N 7 9 - - - - 10 - - 16.0 1013.1 0.0
31/06:30pm N 6 8 - - - - 10 Partly cloudy - 16.4 1013.2 0.0
31/06:00pm N 6 9 - - - - 10 Cloudy - 17.2 1013.1 0.0
31/05:30pm N 5 7 - - - - 10 Partly cloudy - 16.5 1013.0 0.0
31/05:00pm N 4 5 - - - - 10 Partly cloudy - 16.6 1012.8 0.0
31/04:30pm N 6 11 - - - - 10 Partly cloudy - 18.9 1012.5 0.0
31/04:00pm NW 6 9 - - - - 10 Cloudy - 19.7 1012.6 0.0
31/03:30pm NNW 7 10 - - - - 10 Cloudy - 19.9 1012.7 0.0
31/03:00pm NNW 6 9 - - - - 10 Cloudy - 20.3 1012.8 0.0
31/02:30pm NW 9 17 - - - - 10 Partly cloudy - 20.8 1012.7 0.0
31/02:00pm NNW 9 15 - - - - 10 Partly cloudy - 22.0 1012.6 0.0
31/01:30pm NNW 9 15 - - - - 10 - - 20.4 1012.8 0.0
31/01:00pm NNW 8 13 - - - - 10 Partly cloudy - 20.8 1013.0 0.0
31/12:30pm NNE 10 15 - - - - 10 Partly cloudy - 21.0 1013.3 0.0
31/12:00pm N 9 15 - - - - 10 Mostly cloudy - 20.1 1014.3 0.0
31/11:30am NNE 11 15 - - - - 10 - - 20.2 1014.7 0.0
31/11:00am N 7 11 - - - - 10 - - 19.8 1015.6 0.0
31/10:30am N 6 9 - - - - 10 - - 19.1 1016.1 0.0
31/10:00am NNW 8 12 - - - - 10 Partly cloudy - 17.8 1016.3 0.0
31/09:30am N 7 10 - - - - 10 Cloudy - 16.5 1016.5 0.0
31/09:00am N 7 10 - - - - 10 Mostly cloudy - 15.4 1016.6 0.0
31/08:30am NNW 6 9 - - - - 10 Partly cloudy - 14.6 1016.6 0.0
31/08:00am N 5 6 - - - - 10 Partly cloudy - 13.6 1016.7 0.0
31/07:30am N 7 9 - - - - 10 Cloudy - 14.6 1016.5 0.0
31/07:00am N 9 11 - - - - 10 Partly cloudy - 15.1 1016.3 0.0
31/06:30am N 7 10 - - - - 10 Partly cloudy - 13.6 1016.2 0.0
31/06:00am N 3 4 - - - - 10 Mostly cloudy - 12.6 1016.0 0.0
31/05:30am N 6 8 - - - - 10 - - 12.5 1015.6 0.0
31/05:00am N 8 10 - - - - 10 - - 14.1 1015.6 0.0
31/04:30am N 6 7 - - - - 10 - - 13.5 1016.0 0.0
31/04:00am N 5 7 - - - - 10 - - 12.5 1016.1 0.0
31/03:30am NNW 7 8 - - - - 10 - - 12.1 1016.2 0.0
31/03:00am NW 5 7 - - - - 10 - - 10.6 1016.5 0.0
31/02:30am NNW 6 8 - - - - 10 - - 11.1 1016.6 0.0
31/02:00am N 5 6 - - - - 10 - - 13.1 1017.2 0.0
31/01:30am NNE 8 11 - - - - 10 - - 13.2 1017.2 0.0
31/01:00am N 7 9 - - - - 10 - - 13.5 1017.2 0.0
31/12:30am N 5 7 - - - - 10 - - 13.2 1017.7 0.0
31/12:00am N 6 9 - - - - 10 - - 13.2 1018.0 0.0
 
Date/Time
EST
Wind Sea
Height
m
Swell Vis
km
Cloud Weather Temp
°C
Press
hPa
Rain since
9am
mm
Dir  Spd
kts
Gust
kts
Height
m
Period
s
Dir
30/11:30pm NNW 5 7 - - - - 10 - - 10.2 1018.6 0.0
30/11:00pm NW 1 4 - - - - 10 - - 10.5 1018.8 0.0
30/10:30pm N 6 8 - - - - 10 - - 12.3 1018.8 0.0
30/10:00pm NNW 6 8 - - - - 10 - - 13.0 1019.0 0.0
30/09:30pm NNW 6 8 - - - - 10 - - 13.2 1019.1 0.0
30/09:00pm NNW 7 10 - - - - 10 - - 13.7 1019.5 0.0
30/08:30pm NNW 7 9 - - - - 10 - - 12.6 1020.1 0.0
30/08:00pm N 6 8 - - - - 10 - - 13.8 1020.1 0.0
30/07:30pm N 7 9 - - - - 10 - - 12.8 1020.2 0.0
30/07:00pm N 4 5 - - - - 10 - - 11.9 1020.7 0.0
30/06:30pm N 6 7 - - - - 10 - - 14.4 1021.0 0.0
30/06:00pm N 7 10 - - - - 10 - - 15.7 1021.1 0.0
30/05:30pm N 7 9 - - - - 10 - - 16.1 1020.8 0.0
30/05:00pm N 9 12 - - - - 10 - - 16.2 1020.5 0.0
30/04:30pm NNE 12 15 - - - - 10 - - 17.8 1020.3 0.0
30/04:00pm NNE 15 18 - - - - 10 - - 18.4 1020.2 0.0
30/03:30pm NNE 14 19 - - - - 10 - - 18.8 1020.4 0.0
30/03:00pm NNE 13 18 - - - - 10 - - 19.0 1020.5 0.0
30/02:30pm NE 14 19 - - - - 10 Partly cloudy - 19.4 1020.8 0.0
30/02:00pm NE 12 16 - - - - 10 - - 19.5 1021.2 0.0
30/01:30pm NNE 11 16 - - - - 10 - - 20.4 1021.5 0.0
30/01:00pm NNE 10 13 - - - - 10 - - 20.8 1022.1 0.0
30/12:30pm N 9 13 - - - - 10 - - 20.6 1022.6 0.0
30/12:00pm N 10 13 - - - - 10 - - 19.8 1023.4 0.0
30/11:30am N 7 9 - - - - 10 - - 19.6 1024.1 0.0
30/11:00am N 7 11 - - - - 10 - - 18.5 1024.8 0.0
30/10:30am N 6 9 - - - - 10 - - 17.4 1025.2 0.0
30/10:00am N 5 7 - - - - 10 - - 15.8 1025.7 0.0
30/09:30am N 4 8 - - - - 10 - - 13.3 1025.8 0.0
30/09:00am CALM 0 0 - - - - 10 - - 11.4 1025.9 0.0
30/08:30am CALM 0 0 - - - - 10 - - 8.9 1025.9 0.0
30/08:06am CALM 0 0 - - - - 10 - - 7.0 1026.0 0.0
30/08:00am CALM 0 0 - - - - 10 - - 6.5 1026.0 0.0
30/07:30am CALM 0 0 - - - - 1 - - 4.1 1025.9 0.0
30/07:00am CALM 0 0 - - - - 2 Partly cloudy - 4.4 1025.9 0.0
30/06:34am CALM 0 0 - - - - 0.7 Partly cloudy - 3.5 1025.9 0.0
30/06:30am CALM 0 0 - - - - 0.9 Partly cloudy - 3.4 1025.8 0.0
30/06:03am CALM 0 0 - - - - 0.3 Partly cloudy - 4.5 1025.8 0.0
30/06:00am CALM 0 0 - - - - 0.5 Partly cloudy - 4.4 1025.9 0.0
30/05:30am CALM 0 0 - - - - 0.8 - - 5.0 1025.8 0.0
30/05:00am CALM 0 0 - - - - 0.5 Partly cloudy - 4.5 1025.8 0.0
30/04:30am CALM 0 0 - - - - 0.9 - - 5.2 1025.8 0.0
30/04:00am CALM 0 0 - - - - 2 - - 5.3 1026.0 0.0
30/03:30am NW 2 4 - - - - 2 - - 5.7 1026.0 0.0
30/03:00am WNW 2 3 - - - - 1 - - 5.3 1026.2 0.0
30/02:30am CALM 0 0 - - - - 2 - - 6.1 1026.4 0.0
30/02:00am WNW 1 3 - - - - 1 - - 5.8 1026.5 0.0
30/01:30am CALM 0 0 - - - - 7 Partly cloudy - 6.6 1026.7 0.0
30/01:00am CALM 0 0 - - - - 2 - - 6.4 1026.7 0.0
30/12:56am CALM 0 0 - - - - 4 - - 6.7 1026.7 0.0
30/12:43am CALM 0 0 - - - - 10 - - 6.9 1026.8 0.0
30/12:30am CALM 0 0 - - - - 5 - - 7.1 1026.7 0.0
30/12:00am CALM 0 0 - - - - 2 - - 7.4 1026.8 0.0
 
Date/Time
EST
Wind Sea
Height
m
Swell Vis
km
Cloud Weather Temp
°C
Press
hPa
Rain since
9am
mm
Dir  Spd
kts
Gust
kts
Height
m
Period
s
Dir
29/11:30pm CALM 0 0 - - - - 1 - - 7.7 1027.1 0.0
29/11:02pm CALM 0 0 - - - - 3 - - 8.0 1027.3 0.0
29/11:00pm CALM 0 0 - - - - 10 - - 8.1 1027.3 0.0
29/10:30pm CALM 0 0 - - - - 10 - - 9.0 1027.7 0.0
29/10:00pm CALM 0 0 - - - - 10 - - 9.6 1027.8 0.0
29/09:30pm CALM 0 0 - - - - 10 - - 9.8 1028.0 0.0
29/09:00pm CALM 0 0 - - - - 10 - - 10.8 1028.0 0.0
29/08:30pm CALM 0 0 - - - - 10 - - 11.4 1027.9 0.0
29/08:00pm CALM 0 0 - - - - 10 Partly cloudy - 12.5 1027.9 0.0
29/07:30pm CALM 0 0 - - - - 10 Partly cloudy - 13.1 1027.8 0.0
29/07:00pm N 3 3 - - - - 10 Partly cloudy - 13.0 1027.7 0.0
29/06:30pm N 3 3 - - - - 10 Partly cloudy - 14.1 1027.3 0.0
29/06:00pm N 4 6 - - - - 10 Cloudy - 15.4 1027.3 0.0
29/05:30pm ENE 6 7 - - - - 10 Cloudy - 16.2 1027.2 0.0
29/05:00pm ENE 6 7 - - - - 10 Cloudy - 16.2 1027.0 0.0
29/04:30pm NE 5 7 - - - - 10 Partly cloudy - 16.0 1026.7 0.0
29/04:00pm NE 7 9 - - - - 10 - - 16.3 1026.5 0.0
29/03:30pm ENE 8 10 - - - - 10 - - 17.0 1026.3 0.0
29/03:00pm ENE 8 10 - - - - 10 - - 17.2 1026.2 0.0
29/02:30pm ENE 9 10 - - - - 10 - - 17.4 1026.1 0.0
29/02:00pm E 9 10 - - - - 10 - - 17.5 1026.1 0.0
29/01:30pm E 8 10 - - - - 10 Partly cloudy - 17.5 1026.1 0.0
29/01:00pm ESE 7 9 - - - - 10 Partly cloudy - 16.3 1026.6 0.0
29/12:30pm E 7 9 - - - - 10 - - 17.5 1026.8 0.0
29/12:00pm E 7 8 - - - - 10 Mostly clear - 17.2 1026.9 0.0
29/11:30am E 5 7 - - - - 10 Partly cloudy - 17.3 1027.5 0.0
29/11:00am ENE 5 6 - - - - 10 - - 17.2 1027.9 0.0
29/10:30am SSW 3 6 - - - - 10 - - 16.9 1028.3 0.0
29/10:00am WSW 5 7 - - - - 10 Partly cloudy - 16.0 1028.6 0.0
29/09:30am WSW 5 7 - - - - 10 Partly cloudy - 15.2 1028.4 0.0
29/09:00am SW 4 6 - - - - 10 - - 13.8 1028.0 0.0
29/08:30am W 4 6 - - - - 10 - - 12.6 1027.6 0.0
29/08:00am WSW 1 3 - - - - 10 - - 11.8 1027.3 0.0
29/07:30am W 1 3 - - - - 10 Partly cloudy - 11.0 1026.9 0.0
29/07:00am WNW 3 5 - - - - 10 Cloudy - 10.8 1026.7 0.0

Other formats

Comma delimited format used in spreadsheet applications
http://www.bom.gov.au/fwo/IDN60701/IDN60701.95937.axf

JavaScript Object Notation format (JSON) in row-major order
http://www.bom.gov.au/fwo/IDN60701/IDN60701.95937.json

Data quality

Most of these data are generated automatically and are frequently updated. Quality checks on data are not normally performed. It is possible for incorrect values to appear. Refer to information at About Latest Weather Observations and please check the disclaimer before using these data.